createdAt,value
2022-09-13T00:00:05.553Z,3.47
2022-09-13T00:05:07.846Z,2.92
2022-09-13T00:10:09.979Z,3.45
2022-09-13T00:15:11.905Z,3.10
2022-09-13T00:20:13.684Z,2.70
2022-09-13T00:25:15.158Z,2.72
2022-09-13T00:30:16.621Z,3.30
2022-09-13T00:35:18.128Z,3.00
2022-09-13T00:40:20.709Z,3.67
2022-09-13T00:45:22.286Z,2.88
2022-09-13T00:50:54.636Z,2.42
2022-09-13T00:56:19.522Z,2.97
2022-09-13T01:01:26.075Z,2.85
2022-09-13T01:06:32.990Z,3.17
2022-09-13T01:11:49.088Z,2.92
2022-09-13T01:16:50.672Z,3.38
2022-09-13T01:22:15.606Z,2.85
2022-09-13T01:27:40.930Z,3.30
2022-09-13T01:32:54.449Z,2.70
2022-09-13T01:38:26.678Z,3.03
2022-09-13T01:43:54.464Z,3.13
2022-09-13T01:49:06.324Z,2.72
2022-09-13T01:54:21.247Z,2.75
2022-09-13T01:59:32.324Z,4.20
2022-09-13T02:04:40.322Z,3.10
2022-09-13T02:09:46.443Z,3.00
2022-09-13T02:15:04.866Z,3.17
2022-09-13T02:20:13.515Z,3.20
2022-09-13T02:25:18.331Z,3.70
2022-09-13T02:30:21.001Z,3.42
2022-09-13T02:35:45.294Z,2.40
2022-09-13T02:40:58.009Z,2.47
2022-09-13T02:46:26.378Z,2.35
2022-09-13T02:51:46.871Z,2.58
2022-09-13T02:56:56.755Z,2.50
2022-09-13T03:02:09.857Z,2.83
2022-09-13T03:07:13.078Z,3.35
2022-09-13T03:12:46.750Z,3.00
2022-09-13T03:18:05.971Z,3.08
2022-09-13T03:23:46.346Z,2.55
2022-09-13T03:28:47.761Z,2.63
2022-09-13T03:33:58.182Z,3.00
2022-09-13T03:39:17.062Z,2.47
2022-09-13T03:44:21.938Z,2.75
2022-09-13T03:49:26.881Z,3.63
2022-09-13T03:54:34.433Z,2.97
2022-09-13T03:59:38.752Z,3.30
2022-09-13T04:04:41.789Z,2.75
2022-09-13T04:09:43.191Z,2.60
2022-09-13T04:14:45.106Z,2.45
2022-09-13T04:19:47.141Z,2.80
2022-09-13T04:24:48.605Z,2.65
2022-09-13T04:29:50.024Z,3.70
2022-09-13T04:34:51.505Z,2.65
2022-09-13T04:39:53.720Z,2.47
2022-09-13T04:44:55.787Z,2.47
2022-09-13T04:49:57.262Z,2.85
2022-09-13T04:55:01.559Z,2.45
2022-09-13T05:00:04.114Z,2.78
2022-09-13T05:05:05.957Z,2.55
2022-09-13T05:10:08.006Z,3.95
2022-09-13T05:15:10.728Z,2.90
2022-09-13T05:20:12.884Z,2.78
2022-09-13T05:25:14.377Z,3.30
2022-09-13T05:30:16.107Z,3.53
2022-09-13T05:35:17.584Z,3.63
2022-09-13T05:40:19.056Z,2.60
2022-09-13T05:45:20.638Z,2.60
2022-09-13T05:50:45.070Z,2.83
2022-09-13T05:55:43.689Z,2.30
2022-09-13T06:00:45.237Z,2.67
2022-09-13T06:05:46.632Z,2.63
2022-09-13T06:10:59.527Z,2.53
2022-09-13T06:16:02.879Z,2.03
2022-09-13T06:21:20.272Z,2.20
2022-09-13T06:26:24.297Z,2.13
2022-09-13T06:31:28.269Z,1.92
2022-09-13T06:36:29.861Z,2.17
2022-09-13T06:41:31.516Z,2.35
2022-09-13T06:46:35.025Z,2.40
2022-09-13T06:51:36.996Z,1.90
2022-09-13T06:56:39.058Z,1.33
2022-09-13T07:01:44.012Z,1.40
2022-09-13T07:06:48.368Z,1.40
2022-09-13T07:11:51.756Z,1.33
2022-09-13T07:16:53.848Z,1.55
2022-09-13T07:21:56.930Z,1.75
2022-09-13T07:26:58.438Z,1.40
2022-09-13T07:31:59.898Z,1.45
2022-09-13T07:37:02.228Z,1.52
2022-09-13T07:42:04.928Z,1.92
2022-09-13T07:47:06.452Z,1.20
2022-09-13T07:52:07.863Z,1.25
2022-09-13T07:57:09.303Z,1.50
2022-09-13T08:02:18.414Z,1.60
2022-09-13T08:07:19.913Z,1.77
2022-09-13T08:12:21.320Z,2.03
2022-09-13T08:17:22.773Z,1.80
2022-09-13T08:22:24.243Z,2.67
2022-09-13T08:27:25.717Z,1.70
2022-09-13T08:32:27.174Z,2.42
2022-09-13T08:37:28.727Z,1.60
2022-09-13T08:42:47.102Z,1.77
2022-09-13T08:47:52.506Z,1.50
2022-09-13T08:53:19.504Z,1.52
2022-09-13T08:58:26.865Z,1.13
2022-09-13T09:03:43.532Z,1.20
2022-09-13T09:08:54.117Z,1.70
2022-09-13T09:14:16.907Z,1.40
2022-09-13T09:19:21.497Z,1.83
2022-09-13T09:24:25.482Z,1.77
2022-09-13T09:29:32.881Z,1.50
2022-09-13T09:34:48.209Z,1.63
2022-09-13T09:39:51.028Z,1.42
2022-09-13T09:44:57.785Z,1.30
2022-09-13T09:50:11.980Z,1.42
2022-09-13T09:55:27.294Z,1.38
2022-09-13T10:00:32.257Z,1.40
2022-09-13T10:05:35.180Z,1.23
2022-09-13T10:10:43.038Z,1.52
2022-09-13T10:16:25.953Z,1.60
2022-09-13T10:21:27.375Z,2.53
2022-09-13T10:26:33.596Z,1.20
2022-09-13T10:31:40.097Z,1.58
2022-09-13T10:36:55.033Z,1.30
2022-09-13T10:42:03.947Z,1.48
2022-09-13T10:47:11.359Z,1.17
2022-09-13T10:52:35.856Z,1.00
2022-09-13T10:57:37.907Z,1.17
2022-09-13T11:03:13.041Z,1.20
2022-09-13T11:08:40.442Z,1.42
2022-09-13T11:14:09.578Z,1.27
2022-09-13T11:19:30.493Z,1.07
2022-09-13T11:24:47.250Z,1.10
2022-09-13T11:30:10.630Z,1.35
2022-09-13T11:35:29.366Z,1.13
2022-09-13T11:40:36.654Z,1.00
2022-09-13T11:45:50.445Z,0.98
2022-09-13T11:51:11.605Z,0.88
2022-09-13T11:56:20.252Z,1.00
2022-09-13T12:01:27.906Z,1.40
2022-09-13T12:06:35.434Z,1.40
2022-09-13T12:11:41.915Z,1.40
2022-09-13T12:16:48.904Z,1.20
2022-09-13T12:21:53.051Z,1.15
2022-09-13T12:27:28.971Z,1.08
2022-09-13T12:32:31.284Z,1.02
2022-09-13T12:37:50.385Z,1.17
2022-09-13T12:43:12.138Z,0.90
2022-09-13T12:49:03.125Z,0.65
2022-09-13T12:54:31.549Z,0.82
2022-09-13T13:00:13.512Z,0.95
2022-09-13T13:05:33.633Z,0.80
2022-09-13T13:10:38.684Z,0.93
2022-09-13T13:15:47.860Z,2.30
2022-09-13T13:20:54.086Z,1.52
2022-09-13T13:26:23.560Z,1.08
2022-09-13T13:31:25.074Z,1.00
2022-09-13T13:36:33.569Z,0.70
2022-09-13T13:41:36.049Z,0.80
2022-09-13T13:46:37.478Z,1.05
2022-09-13T13:51:38.896Z,0.65
2022-09-13T13:56:49.212Z,0.70
2022-09-13T14:01:55.585Z,0.70
2022-09-13T14:07:19.730Z,0.68
2022-09-13T14:12:29.297Z,0.70
2022-09-13T14:17:55.055Z,1.10
2022-09-13T14:23:17.719Z,0.60
2022-09-13T14:28:22.500Z,0.95
2022-09-13T14:33:34.759Z,1.00
2022-09-13T14:38:36.620Z,0.82
2022-09-13T14:43:38.112Z,1.48
2022-09-13T14:48:47.129Z,0.80
2022-09-13T14:53:53.138Z,0.97
2022-09-13T14:58:59.396Z,1.00
2022-09-13T15:04:03.429Z,1.20
2022-09-13T15:09:10.599Z,1.10
2022-09-13T15:14:24.328Z,1.08
2022-09-13T15:20:04.440Z,1.63
2022-09-13T15:25:06.210Z,1.17
2022-09-13T15:30:24.790Z,1.58
2022-09-13T15:35:34.567Z,1.15
2022-09-13T15:40:45.021Z,1.35
2022-09-13T15:45:46.886Z,1.38
2022-09-13T15:51:13.242Z,1.00
2022-09-13T15:56:25.216Z,1.15
2022-09-13T16:01:27.761Z,1.00
2022-09-13T16:06:29.432Z,0.95
2022-09-13T16:11:31.011Z,1.15
2022-09-13T16:16:32.549Z,0.90
2022-09-13T16:21:33.967Z,1.17
2022-09-13T16:26:35.630Z,0.90
2022-09-13T16:31:37.459Z,1.02
2022-09-13T16:36:38.993Z,0.90
2022-09-13T16:41:40.536Z,1.20
2022-09-13T16:46:42.448Z,0.90
2022-09-13T16:51:44.633Z,0.98
2022-09-13T16:56:46.132Z,1.05
2022-09-13T17:01:47.667Z,1.90
2022-09-13T17:06:49.269Z,0.82
2022-09-13T17:11:51.031Z,0.90
2022-09-13T17:16:54.929Z,1.17
2022-09-13T17:21:57.629Z,1.10
2022-09-13T17:26:59.231Z,1.15
2022-09-13T17:32:02.705Z,0.80
2022-09-13T17:37:05.710Z,1.00
2022-09-13T17:42:07.247Z,0.98
2022-09-13T17:47:08.757Z,1.00
2022-09-13T17:52:10.182Z,1.15
2022-09-13T17:57:14.220Z,1.50
2022-09-13T18:02:15.692Z,1.73
2022-09-13T18:07:17.568Z,1.45
2022-09-13T18:12:19.030Z,1.50
2022-09-13T18:17:20.466Z,1.58
2022-09-13T18:22:21.872Z,1.20
2022-09-13T18:27:23.275Z,1.30
2022-09-13T18:32:24.759Z,1.35
2022-09-13T18:37:26.151Z,1.77
2022-09-13T18:42:31.427Z,2.10
2022-09-13T18:47:34.819Z,1.83
2022-09-13T18:52:39.013Z,1.90
2022-09-13T18:57:40.407Z,1.70
2022-09-13T19:03:02.052Z,1.80
2022-09-13T19:08:07.027Z,1.67
2022-09-13T19:13:08.485Z,1.52
2022-09-13T19:18:09.904Z,1.90
2022-09-13T19:23:11.304Z,1.95
2022-09-13T19:28:12.710Z,1.55
2022-09-13T19:33:15.302Z,1.80
2022-09-13T19:38:16.683Z,1.77
2022-09-13T19:43:18.143Z,1.83
2022-09-13T19:48:38.050Z,2.17
2022-09-13T19:53:56.411Z,2.33
2022-09-13T19:58:59.939Z,2.17
2022-09-13T20:04:06.826Z,2.03
2022-09-13T20:09:09.478Z,2.55
2022-09-13T20:14:16.230Z,2.03
2022-09-13T20:24:41.256Z,2.40
2022-09-13T20:29:42.730Z,2.13
2022-09-13T20:34:44.153Z,2.05
2022-09-13T20:39:45.632Z,1.80
2022-09-13T20:44:47.181Z,2.03
2022-09-13T20:49:48.575Z,2.00
2022-09-13T20:54:50.318Z,1.85
2022-09-13T20:59:51.731Z,2.97
2022-09-13T21:04:53.164Z,2.30
2022-09-13T21:09:54.538Z,2.17
2022-09-13T21:14:56.017Z,2.50
2022-09-13T21:19:59.429Z,1.95
2022-09-13T21:25:00.864Z,2.60
2022-09-13T21:30:02.333Z,3.15
2022-09-13T21:35:04.376Z,2.20
2022-09-13T21:40:06.694Z,2.17
2022-09-13T21:45:08.657Z,2.40
2022-09-13T21:50:10.080Z,2.88
2022-09-13T21:55:11.777Z,3.53
2022-09-13T22:00:14.616Z,2.70
2022-09-13T22:05:34.729Z,2.90
2022-09-13T22:10:36.502Z,3.22
2022-09-13T22:15:37.899Z,2.72
2022-09-13T22:20:39.429Z,2.72
2022-09-13T22:25:42.184Z,3.40
2022-09-13T22:30:43.611Z,2.95
2022-09-13T22:35:45.047Z,2.90
2022-09-13T22:40:55.490Z,2.25
2022-09-13T22:51:07.187Z,2.25
2022-09-13T22:56:10.851Z,2.53
2022-09-13T23:01:14.847Z,2.35
2022-09-13T23:06:21.571Z,2.35
2022-09-13T23:11:28.740Z,2.25
2022-09-13T23:16:32.833Z,3.80
2022-09-13T23:21:37.023Z,2.78
2022-09-13T23:26:38.730Z,3.08
2022-09-13T23:31:40.658Z,3.00
2022-09-13T23:36:44.173Z,3.63
2022-09-13T23:41:47.875Z,3.35
2022-09-13T23:46:49.474Z,3.50
2022-09-13T23:51:51.174Z,3.90
2022-09-13T23:56:52.575Z,3.20
